首页
METAR-TAF:

METAR-TAF

机场 :

麦卡伦, 得克萨斯州, 美国

纬度: 26-10-47N, 经度: 098-14-40W, 海拔: 32米

当前天气观测

该预报发布于31分钟前的11:53 UTC
风速11节,风向
温度 11°C
湿度 76%
气压 1030 hPa
能見度: 16.1公里
阴天层高于1400英尺

METAR: KMFE 111153Z 36011KT 10SM OVC014 11/07 A3043 RMK AO2 SLP302 70005 T01060067 10117 20100 53004

时间: 06:24 (12:24 UTC)

预报

该预报发布于1小时和4分钟前的11:20 UTC
预报有效从11日的 12点(UTC)到 12日的 12点(UTC)
风速12节,风向
能見度: 10公里
阴天层高于1500英尺
从 11日的 1700点(UTC)
风速9节,风向北转西北
能見度: 10公里
多云层高于5000英尺
从 12日的 0400点(UTC)
风速4节,风向多变
能見度: 10公里
多云层高于10000英尺

TAF: KMFE 111120Z 1112/1212 36012KT P6SM OVC015 FM111700 34009KT P6SM BKN050 FM120400 VRB04KT P6SM BKN100

超过4000个机场的气象观测和天气预报(METAR&TAF报告)。

可查询的气象台以黄色和红色小点在地图上表示。

将鼠标移到小点上方,可查看气象台名称。

然后点击查看天气观测和预报。

如需切换地图:点击带黑十字的绿色按钮放大地图;点击带横线的绿色按钮缩小地图;或者点击绿色箭头查看邻近地区的地图。


METAR-TAF: